Details From MRLB - Daniel Oduber Quiros Intl
To MROC - San Jose Juan Santamaria Intl
Flight Number -
Tags generated
Created
Modified
Stats Distance 87 nm / 161 km
Max Altitude 8,800 ft / 2,682 m
Waypoints 3
Social Downloads 0
Likes 0
Share VATSIM

Download

Looking for another format? Having issues loading an existing format? Contact us
Advertisement - Login to hide

Notes

Basic altitude profile: - Ascent Rate: 2500ft/min - Ascent Speed: 250kts - Cruise Altitude: 35000ft - Cruise Speed: 420kts - Descent Rate: 1500ft/min - Descent Speed: 250kts Options: - Use NATs: yes - Use PACOTS: yes - Use low airways: yes - Use high airways: yes

Route

MRLB CANAS MROC

ID Type Via Altitude Latitude Longitude Leg Dist Tot Dist Heading (true) Name
O MRLB APT - 0 ft / 0 m 10.59329˚ -85.54441˚ - 0 nm - Daniel Oduber Quiros Intl
CANAS FIX - 8,800 ft / 2,682 m 10.27000˚ -84.84833˚ 45 nm 45 nm 115° / 115° -
O MROC APT - 0 ft / 0 m 9.99393˚ -84.20888˚ 41 nm 86 nm 114° / 114° San Jose Juan Santamaria Intl

Altitude Profile

Advertisement - Login to hide

MRLB

Details ICAO MRLB (LIR)
Name Daniel Oduber Quiros Intl
Region Costa Rica
Timezone America/Costa_Rica (UTC-6.0)
Stats Elevation 270 ft / 82 m (AMSL)
Location 10.593289° -85.544410°
Runways 1
Magnetic Variation 1.103° W

METAR

Not found

TAF

TAF MRLB 212300Z 2200/2224 10010KT 9999 SCT030 TX31/2219Z TN23/2212Z BECMG 2216/2219 26008KT TEMPO 2220/2224 SHRA SCT020TCU

Decode

Departure Runways

ID Width Length Bearing (true) Bearing (mag) Surface Threshold Offset Overrun Length
07 148 ft / 45 m 9,068 ft / 2,764 m 70.05° 71.15° Asphalt 0 ft / 0 m 0 ft / 0 m
25 148 ft / 45 m 9,068 ft / 2,764 m 250.05° 251.15° Asphalt 0 ft / 0 m 0 ft / 0 m

MROC

Details ICAO MROC (SJO)
Name San Jose Juan Santamaria Intl
Region Costa Rica
Timezone America/Costa_Rica (UTC-6.0)
Stats Elevation 3,021 ft / 921 m (AMSL)
Location 9.993927° -84.208884°
Runways 1
Magnetic Variation 1.782° W

METAR

MROC 220800Z 33003KT 9999 BCFG FEW012 SCT020 BKN100 20/20 A2996 NOSIG

Decode

TAF

TAF MROC 212300Z 2200/2224 25005KT 9999 SCT030 TX28/2218Z TN19/2210Z TEMPO 2204/2209 VRB02KT 5000 RA BR FEW002 BKN010 TEMPO 2210/2215 07006KT TEMPO 2220/2224 -TSRA FEW020TCU BKN030

Decode

Destination Runways

ID Width Length Bearing (true) Bearing (mag) Surface Threshold Offset Overrun Length
07 151 ft / 46 m 9,994 ft / 3,046 m 68.91° 70.69° Asphalt 0 ft / 0 m 200 ft / 61 m
25 151 ft / 46 m 9,994 ft / 3,046 m 248.92° 250.70° Asphalt 1,969 ft / 600 m 200 ft / 61 m

Approach Navaids

Runway Type Ident Frequency Range Bearing (true) Bearing (mag) Slope Elevation
07 Localiser IOCO 109.50 MHz 18 nm / 33 km 68.89° 70.67° - 930 ft / 283 m (AMSL)
07 Glidescope IOCO 109.50 MHz 10 nm / 19 km 68.91° 70.70° 3.00° 930 ft / 283 m (AMSL)
07 DME IOCO 109.50 MHz 18 nm / 33 km - - - 930 ft / 283 m (AMSL)

Popular Alternatives